Time;durP1;ratioP1;P1;durP2;ratioP2;P2;SDS_P1;SDS_P2;PMS_P1;PMS_P2;Temp;Humidity;BMP_temperature;BMP_pressure;BME280_temperature;BME280_humidity;BME280_pressure;Samples;Min_cycle;Max_cycle;Signal;HPM_P1;HPM_P2
2021/05/09 00:00:00;;;;;;;3.28;2.03;;;17.80;54.40;;;;;;1490583;39;20112;-64
2021/05/09 00:01:21;;;;;;;2.45;2.05;;;17.80;54.40;;;;;;1484791;40;20087;-64
2021/05/09 00:02:42;;;;;;;4.30;2.38;;;17.80;54.50;;;;;;1489937;39;20310;-64
2021/05/09 00:04:03;;;;;;;2.50;1.80;;;17.80;54.50;;;;;;1492031;39;20422;-64
2021/05/09 00:05:24;;;;;;;3.15;2.03;;;17.80;54.60;;;;;;1490417;39;20038;-64
2021/05/09 00:06:45;;;;;;;4.00;2.00;;;17.80;54.60;;;;;;1491345;39;20031;-64
2021/05/09 00:08:06;;;;;;;2.00;1.80;;;17.80;54.60;;;;;;1491173;39;20028;-64
2021/05/09 00:09:27;;;;;;;3.85;2.25;;;17.80;54.60;;;;;;1490997;39;20364;-63
2021/05/09 00:10:48;;;;;;;4.18;2.30;;;17.80;54.60;;;;;;1491531;39;20032;-64
2021/05/09 00:12:09;;;;;;;7.65;2.15;;;17.80;54.70;;;;;;1491371;39;20042;-64
2021/05/09 00:13:30;;;;;;;2.35;1.98;;;17.70;54.60;;;;;;1491454;39;20065;-63
2021/05/09 00:14:51;;;;;;;3.25;2.13;;;17.80;54.70;;;;;;1489133;39;20024;-63
2021/05/09 00:16:12;;;;;;;3.35;2.05;;;17.80;54.70;;;;;;1491221;39;20043;-63
2021/05/09 00:17:33;;;;;;;5.45;2.17;;;17.70;54.80;;;;;;1490379;39;20141;-64
2021/05/09 00:18:54;;;;;;;2.70;2.03;;;17.70;54.70;;;;;;1491664;39;20024;-64
2021/05/09 00:20:16;;;;;;;2.97;2.17;;;17.70;54.80;;;;;;1491119;39;20027;-64
2021/05/09 00:21:37;;;;;;;2.58;1.75;;;17.70;54.90;;;;;;1490827;39;20031;-64
2021/05/09 00:22:58;;;;;;;2.95;1.70;;;17.70;54.80;;;;;;1491533;39;20092;-63
2021/05/09 00:24:19;;;;;;;3.75;2.25;;;17.70;54.80;;;;;;1491643;39;20028;-64
2021/05/09 00:25:40;;;;;;;2.85;2.15;;;17.70;54.80;;;;;;1490716;39;20032;-63
2021/05/09 00:27:01;;;;;;;3.72;2.22;;;17.70;54.80;;;;;;1491092;39;20034;-63
2021/05/09 00:28:22;;;;;;;3.83;2.08;;;17.70;54.90;;;;;;1488672;39;20035;-64
2021/05/09 00:29:42;;;;;;;2.58;2.20;;;17.70;54.90;;;;;;1489955;39;20034;-62
2021/05/09 00:31:03;;;;;;;3.72;2.08;;;17.70;54.90;;;;;;1490509;39;20036;-64
2021/05/09 00:32:24;;;;;;;3.53;2.30;;;17.70;55.00;;;;;;1491638;39;20094;-63
2021/05/09 00:33:45;;;;;;;2.72;2.00;;;17.70;55.00;;;;;;1491473;39;20054;-63
2021/05/09 00:35:06;;;;;;;2.40;2.08;;;17.70;55.00;;;;;;1491378;39;20027;-63
2021/05/09 00:36:27;;;;;;;5.75;2.40;;;17.70;55.00;;;;;;1490795;39;20047;-62
2021/05/09 00:37:48;;;;;;;2.90;1.85;;;17.70;55.00;;;;;;1489456;39;20039;-63
2021/05/09 00:39:09;;;;;;;2.40;2.20;;;17.60;55.00;;;;;;1491227;39;20105;-63
2021/05/09 00:40:30;;;;;;;3.28;2.38;;;17.60;55.00;;;;;;1489677;39;20285;-63
2021/05/09 00:42:03;;;;;;;3.22;2.30;;;17.60;55.00;;;;;;1491612;39;20036;-63
2021/05/09 00:43:23;;;;;;;4.13;2.33;;;17.60;55.30;;;;;;1489348;39;20405;-63
2021/05/09 00:44:44;;;;;;;2.38;1.90;;;17.60;55.00;;;;;;1491368;39;20076;-63
2021/05/09 00:46:05;;;;;;;6.10;2.22;;;17.60;55.00;;;;;;1491870;39;20027;-63
2021/05/09 00:47:27;;;;;;;4.15;2.00;;;17.60;55.00;;;;;;1489400;39;20408;-63
2021/05/09 00:48:48;;;;;;;4.97;2.40;;;17.60;55.10;;;;;;1491187;39;20028;-63
2021/05/09 00:50:09;;;;;;;4.07;2.30;;;17.60;55.10;;;;;;1490869;39;20031;-63
2021/05/09 00:51:30;;;;;;;2.97;1.70;;;17.50;55.10;;;;;;1490944;39;20047;-63
2021/05/09 00:52:52;;;;;;;5.45;2.40;;;17.50;55.10;;;;;;1490383;39;20035;-63
2021/05/09 00:54:16;;;;;;;2.78;1.90;;;17.50;55.20;;;;;;1491026;39;20034;-63
2021/05/09 00:55:38;;;;;;;4.38;1.90;;;17.50;55.30;;;;;;1491038;39;20035;-63
2021/05/09 00:57:01;;;;;;;3.33;2.17;;;17.50;55.20;;;;;;1491270;39;20024;-63
2021/05/09 00:58:24;;;;;;;3.85;2.13;;;17.50;55.20;;;;;;1489778;39;20034;-63
2021/05/09 00:59:47;;;;;;;4.18;2.63;;;17.50;55.30;;;;;;1491320;39;20421;-63
2021/05/09 01:01:12;;;;;;;4.13;1.92;;;17.50;55.20;;;;;;1491139;39;20055;-63
2021/05/09 01:02:33;;;;;;;3.92;2.33;;;17.50;55.30;;;;;;1489625;39;20047;-63
2021/05/09 01:03:54;;;;;;;3.22;1.98;;;17.40;55.20;;;;;;1491489;39;20032;-63
2021/05/09 01:05:15;;;;;;;4.32;2.13;;;17.40;55.30;;;;;;1491655;39;20063;-63
2021/05/09 01:06:37;;;;;;;2.90;2.00;;;17.40;55.30;;;;;;1489679;39;20353;-63
2021/05/09 01:07:58;;;;;;;2.70;1.67;;;17.40;55.30;;;;;;1491138;39;20128;-63
2021/05/09 01:09:19;;;;;;;2.65;1.95;;;17.40;55.30;;;;;;1490780;39;20342;-63
2021/05/09 01:10:40;;;;;;;2.50;1.98;;;17.40;55.30;;;;;;1489063;39;20312;-63
2021/05/09 01:12:01;;;;;;;3.20;1.83;;;17.40;55.30;;;;;;1491621;39;20093;-63
2021/05/09 01:13:23;;;;;;;4.25;1.45;;;17.40;55.40;;;;;;1489928;39;20035;-63
2021/05/09 01:14:44;;;;;;;3.17;1.83;;;17.40;55.40;;;;;;1490649;39;20039;-63
2021/05/09 01:16:05;;;;;;;5.05;2.15;;;17.40;55.40;;;;;;1491147;39;20115;-63
2021/05/09 01:17:26;;;;;;;3.08;2.00;;;17.40;55.40;;;;;;1491493;39;20044;-64
2021/05/09 01:18:46;;;;;;;4.13;2.40;;;17.30;55.40;;;;;;1491620;39;20261;-63
2021/05/09 01:20:13;;;;;;;3.42;1.92;;;17.40;55.50;;;;;;1491451;39;20273;-63
2021/05/09 01:21:34;;;;;;;2.15;2.05;;;17.30;55.60;;;;;;1489243;39;20035;-64
2021/05/09 01:22:55;;;;;;;6.28;2.38;;;17.30;55.40;;;;;;1490380;39;20256;-63
2021/05/09 01:24:16;;;;;;;2.50;1.85;;;17.30;55.40;;;;;;1491081;39;20035;-63
2021/05/09 01:25:37;;;;;;;3.67;2.20;;;17.30;55.50;;;;;;1490789;39;20389;-62
2021/05/09 01:26:58;;;;;;;4.60;2.10;;;17.30;55.50;;;;;;1490231;39;20024;-63
2021/05/09 01:28:19;;;;;;;3.35;2.15;;;17.30;55.60;;;;;;1491318;39;20112;-63
2021/05/09 01:29:40;;;;;;;3.70;1.70;;;17.30;55.60;;;;;;1489933;39;20047;-63
2021/05/09 01:31:00;;;;;;;3.60;2.28;;;17.30;55.60;;;;;;1488992;39;20036;-63
2021/05/09 01:32:21;;;;;;;2.45;1.70;;;17.30;55.70;;;;;;1491151;39;20062;-63
2021/05/09 01:33:42;;;;;;;2.45;2.00;;;17.30;55.70;;;;;;1491531;39;20285;-63
2021/05/09 01:35:04;;;;;;;2.75;1.60;;;17.30;55.70;;;;;;1490575;39;20124;-63
2021/05/09 01:36:25;;;;;;;2.97;1.90;;;17.30;55.70;;;;;;1490173;39;20077;-63
2021/05/09 01:37:46;;;;;;;3.15;1.90;;;17.30;55.70;;;;;;1491268;39;20026;-63
2021/05/09 01:39:07;;;;;;;2.58;2.03;;;17.30;55.70;;;;;;1489564;39;20369;-64
2021/05/09 01:40:28;;;;;;;4.13;2.17;;;17.20;55.70;;;;;;1489769;39;20346;-63
2021/05/09 01:41:49;;;;;;;4.18;2.05;;;17.30;55.70;;;;;;1490126;39;20024;-63
2021/05/09 01:43:09;;;;;;;1.98;1.77;;;17.30;55.80;;;;;;1491954;39;20411;-63
2021/05/09 01:44:30;;;;;;;2.65;1.88;;;17.20;55.80;;;;;;1491458;39;20028;-63
2021/05/09 01:45:51;;;;;;;2.33;1.80;;;17.30;55.80;;;;;;1491943;39;20031;-63
2021/05/09 01:47:12;;;;;;;2.20;1.85;;;17.20;55.80;;;;;;1492213;39;20269;-62
2021/05/09 01:48:33;;;;;;;2.15;2.00;;;17.20;55.80;;;;;;1490574;39;20713;-63
2021/05/09 01:49:54;;;;;;;2.78;2.00;;;17.20;55.80;;;;;;1490958;39;20533;-62
2021/05/09 01:51:15;;;;;;;4.07;2.05;;;17.20;55.80;;;;;;1491775;39;20112;-62
2021/05/09 01:52:36;;;;;;;2.55;1.92;;;17.20;55.90;;;;;;1491037;39;20028;-63
2021/05/09 01:53:57;;;;;;;3.60;1.77;;;17.20;55.90;;;;;;1491926;39;20035;-62
2021/05/09 01:55:21;;;;;;;3.38;1.73;;;17.20;55.90;;;;;;1490143;39;20035;-62
2021/05/09 01:56:42;;;;;;;3.10;1.80;;;17.20;56.00;;;;;;1490688;39;20038;-62
2021/05/09 01:58:03;;;;;;;2.70;2.03;;;17.20;55.90;;;;;;1489385;39;20032;-63
2021/05/09 01:59:23;;;;;;;3.53;2.20;;;17.20;55.90;;;;;;1491311;39;20036;-63
2021/05/09 02:00:44;;;;;;;3.30;1.92;;;17.20;55.90;;;;;;1489838;39;20028;-63
2021/05/09 02:02:05;;;;;;;3.58;2.10;;;17.20;55.90;;;;;;1491650;39;20024;-63
2021/05/09 02:03:26;;;;;;;2.40;2.20;;;17.20;55.90;;;;;;1488287;39;20575;-62
2021/05/09 02:04:47;;;;;;;3.97;2.25;;;17.20;55.90;;;;;;1491950;39;20028;-62
2021/05/09 02:06:08;;;;;;;5.43;2.25;;;17.20;55.90;;;;;;1492076;39;20039;-63
2021/05/09 02:07:29;;;;;;;2.92;2.03;;;17.10;55.90;;;;;;1491490;39;20043;-62
2021/05/09 02:08:50;;;;;;;4.38;2.05;;;17.10;55.90;;;;;;1491192;39;20032;-63
2021/05/09 02:10:12;;;;;;;4.95;1.90;;;17.10;56.00;;;;;;1491662;39;20345;-63
2021/05/09 02:11:32;;;;;;;3.17;2.08;;;17.10;56.00;;;;;;1491522;39;20027;-62
2021/05/09 02:12:53;;;;;;;4.03;2.15;;;17.10;56.00;;;;;;1491825;39;20111;-62
2021/05/09 02:14:15;;;;;;;3.60;2.13;;;17.00;56.00;;;;;;1491905;39;20024;-63
2021/05/09 02:15:36;;;;;;;4.03;1.92;;;17.10;56.10;;;;;;1491909;39;20040;-62
2021/05/09 02:16:57;;;;;;;3.17;2.05;;;17.10;56.10;;;;;;1491461;39;20020;-62
2021/05/09 02:18:18;;;;;;;2.70;1.95;;;17.00;56.20;;;;;;1491831;39;20039;-62
2021/05/09 02:19:38;;;;;;;2.47;2.00;;;17.00;56.20;;;;;;1491740;39;20051;-63
2021/05/09 02:20:59;;;;;;;6.00;2.20;;;17.00;56.20;;;;;;1491877;39;20105;-63
2021/05/09 02:22:20;;;;;;;3.40;2.05;;;17.00;56.30;;;;;;1489320;39;20089;-62
2021/05/09 02:23:41;;;;;;;4.68;2.00;;;17.00;56.40;;;;;;1491114;39;20116;-62
2021/05/09 02:25:02;;;;;;;4.43;2.20;;;17.00;56.40;;;;;;1492069;39;20024;-62
2021/05/09 02:26:24;;;;;;;2.83;1.70;;;17.00;56.40;;;;;;1487201;40;20058;-63
2021/05/09 02:27:44;;;;;;;1.85;1.67;;;16.90;56.40;;;;;;1488012;39;20023;-62
2021/05/09 02:29:05;;;;;;;2.33;2.03;;;17.00;56.40;;;;;;1491330;39;20315;-62
2021/05/09 02:30:26;;;;;;;4.13;2.05;;;17.00;56.50;;;;;;1491704;39;20032;-63
2021/05/09 02:31:47;;;;;;;2.30;2.08;;;16.90;56.50;;;;;;1492183;39;20022;-63
2021/05/09 02:33:12;;;;;;;3.35;1.88;;;16.90;56.50;;;;;;1491831;39;20079;-62
2021/05/09 02:34:34;;;;;;;2.75;1.90;;;16.90;56.60;;;;;;1491813;39;20040;-62
2021/05/09 02:35:55;;;;;;;2.20;2.00;;;16.90;56.60;;;;;;1491642;39;20024;-62
2021/05/09 02:37:16;;;;;;;4.75;2.08;;;16.90;56.60;;;;;;1491817;39;20024;-62
2021/05/09 02:38:37;;;;;;;2.08;1.90;;;16.90;56.60;;;;;;1491839;39;20387;-62
2021/05/09 02:39:58;;;;;;;2.92;1.92;;;16.90;56.60;;;;;;1491816;39;20020;-63
2021/05/09 02:41:21;;;;;;;4.25;1.75;;;16.80;56.50;;;;;;1491916;39;20583;-63
2021/05/09 02:42:44;;;;;;;4.97;1.92;;;16.80;56.60;;;;;;1489927;39;20039;-64
2021/05/09 02:44:05;;;;;;;2.10;1.90;;;16.80;56.50;;;;;;1492214;39;20301;-63
2021/05/09 02:45:26;;;;;;;2.35;1.77;;;16.80;56.60;;;;;;1492009;39;20149;-62
2021/05/09 02:46:47;;;;;;;2.53;1.67;;;16.80;56.60;;;;;;1492046;39;20060;-63
2021/05/09 02:48:09;;;;;;;3.65;2.20;;;16.80;56.60;;;;;;1491259;39;20201;-63
2021/05/09 02:49:29;;;;;;;3.95;2.20;;;16.80;56.60;;;;;;1489217;39;20567;-62
2021/05/09 02:50:50;;;;;;;2.20;2.00;;;16.80;56.70;;;;;;1491040;39;20281;-62
2021/05/09 02:52:11;;;;;;;2.70;1.90;;;16.80;56.70;;;;;;1491473;39;20034;-62
2021/05/09 02:53:32;;;;;;;2.17;2.00;;;16.80;56.70;;;;;;1489806;39;20035;-62
2021/05/09 02:54:53;;;;;;;2.38;2.00;;;16.80;56.70;;;;;;1491881;39;20031;-62
2021/05/09 02:56:14;;;;;;;3.72;2.08;;;16.80;56.70;;;;;;1489852;39;20347;-62
2021/05/09 02:57:35;;;;;;;2.28;2.00;;;16.80;56.70;;;;;;1489590;39;20128;-62
2021/05/09 02:58:55;;;;;;;2.13;1.88;;;16.70;56.80;;;;;;1491796;39;20035;-62
2021/05/09 03:00:17;;;;;;;3.13;1.98;;;16.80;56.80;;;;;;1490847;39;20039;-62
2021/05/09 03:01:38;;;;;;;2.20;2.00;;;16.70;56.80;;;;;;1491791;39;20034;-62
2021/05/09 03:02:58;;;;;;;2.10;1.92;;;16.80;56.80;;;;;;1490134;39;20397;-63
2021/05/09 03:04:19;;;;;;;2.03;1.70;;;16.70;56.80;;;;;;1490294;39;20260;-62
2021/05/09 03:05:40;;;;;;;4.05;2.00;;;16.70;56.80;;;;;;1490195;39;20024;-62
2021/05/09 03:07:01;;;;;;;2.35;2.13;;;16.70;56.80;;;;;;1492062;39;20077;-63
2021/05/09 03:08:22;;;;;;;3.50;2.00;;;16.70;56.80;;;;;;1490178;39;20036;-62
2021/05/09 03:09:43;;;;;;;3.78;2.05;;;16.70;56.90;;;;;;1491250;39;20112;-62
2021/05/09 03:11:04;;;;;;;2.15;1.98;;;16.70;56.90;;;;;;1490418;39;20400;-62
2021/05/09 03:12:25;;;;;;;2.35;2.03;;;16.70;56.90;;;;;;1491034;39;20028;-62
2021/05/09 03:13:46;;;;;;;2.08;1.70;;;16.70;56.90;;;;;;1492267;39;20297;-62
2021/05/09 03:15:07;;;;;;;7.13;2.00;;;16.70;56.90;;;;;;1492067;39;20032;-62
2021/05/09 03:16:28;;;;;;;4.60;2.00;;;16.70;57.00;;;;;;1489603;39;20036;-62
2021/05/09 03:17:49;;;;;;;2.20;2.00;;;16.70;56.90;;;;;;1490576;39;20085;-62
2021/05/09 03:19:10;;;;;;;2.10;2.00;;;16.70;57.00;;;;;;1492682;39;20060;-63
2021/05/09 03:20:31;;;;;;;2.55;2.05;;;16.60;57.00;;;;;;1492076;39;20044;-62
2021/05/09 03:21:52;;;;;;;2.53;2.03;;;16.60;57.00;;;;;;1491955;39;20067;-62
2021/05/09 03:23:12;;;;;;;2.30;2.10;;;16.60;57.00;;;;;;1491726;39;20038;-62
2021/05/09 03:24:33;;;;;;;2.45;2.10;;;16.60;57.00;;;;;;1491066;39;20064;-62
2021/05/09 03:25:54;;;;;;;2.45;2.25;;;16.60;57.10;;;;;;1490805;39;20016;-62
2021/05/09 03:27:15;;;;;;;1.80;1.70;;;16.60;57.10;;;;;;1491879;39;20080;-62
2021/05/09 03:28:39;;;;;;;1.70;1.60;;;16.60;57.10;;;;;;1490041;39;20039;-62
2021/05/09 03:30:00;;;;;;;1.98;1.88;;;16.60;57.10;;;;;;1490294;39;20031;-63
2021/05/09 03:31:20;;;;;;;2.50;2.30;;;16.60;57.10;;;;;;1491280;39;20058;-62
2021/05/09 03:32:41;;;;;;;1.90;1.80;;;16.60;57.10;;;;;;1492299;39;20028;-62
2021/05/09 03:34:03;;;;;;;2.65;1.90;;;16.60;57.20;;;;;;1492046;39;20265;-62
2021/05/09 03:35:24;;;;;;;2.63;2.03;;;16.60;57.20;;;;;;1491396;39;20409;-62
2021/05/09 03:36:45;;;;;;;4.05;1.98;;;16.60;57.20;;;;;;1491007;39;20067;-62
2021/05/09 03:38:06;;;;;;;2.53;2.33;;;16.60;57.20;;;;;;1490321;39;20036;-62
2021/05/09 03:39:27;;;;;;;2.38;1.98;;;16.50;57.20;;;;;;1489502;39;20032;-62
2021/05/09 03:40:48;;;;;;;1.88;1.77;;;16.60;57.20;;;;;;1490133;39;20024;-62
2021/05/09 03:42:09;;;;;;;2.28;2.08;;;16.50;57.20;;;;;;1488757;39;20064;-62
2021/05/09 03:43:30;;;;;;;2.47;1.98;;;16.50;57.20;;;;;;1489220;39;20408;-62
2021/05/09 03:44:51;;;;;;;2.28;2.05;;;16.50;57.20;;;;;;1491202;39;20031;-63
2021/05/09 03:46:12;;;;;;;2.33;1.92;;;16.60;57.30;;;;;;1490979;39;20031;-62
2021/05/09 03:47:34;;;;;;;2.55;2.00;;;16.50;57.30;;;;;;1491189;39;20048;-62
2021/05/09 03:48:55;;;;;;;2.10;2.00;;;16.50;57.30;;;;;;1491692;39;20268;-62
2021/05/09 03:50:16;;;;;;;2.47;2.28;;;16.50;57.30;;;;;;1491451;39;20015;-62
2021/05/09 03:51:38;;;;;;;1.90;1.80;;;16.50;57.30;;;;;;1489648;39;20116;-62
2021/05/09 03:52:59;;;;;;;3.83;2.28;;;16.50;57.40;;;;;;1491548;39;20042;-63
2021/05/09 03:54:20;;;;;;;2.20;2.00;;;16.50;57.40;;;;;;1487768;39;20033;-62
2021/05/09 03:55:41;;;;;;;3.08;1.88;;;16.50;57.30;;;;;;1491244;39;20051;-62
2021/05/09 03:57:02;;;;;;;3.17;1.80;;;16.50;57.40;;;;;;1490372;39;20688;-63
2021/05/09 03:58:23;;;;;;;2.05;1.73;;;16.50;57.40;;;;;;1490908;39;20285;-62
2021/05/09 03:59:44;;;;;;;2.08;1.90;;;16.50;57.40;;;;;;1491201;39;20034;-62
2021/05/09 04:01:05;;;;;;;2.10;1.98;;;16.50;57.40;;;;;;1490665;39;20034;-63
2021/05/09 04:02:26;;;;;;;2.10;1.90;;;16.50;57.40;;;;;;1489793;39;20060;-63
2021/05/09 04:03:47;;;;;;;2.03;1.90;;;16.50;57.50;;;;;;1490239;39;20027;-62
2021/05/09 04:05:10;;;;;;;3.20;2.20;;;16.50;57.50;;;;;;1491260;39;20058;-61
2021/05/09 04:06:31;;;;;;;2.58;1.90;;;16.50;57.50;;;;;;1491467;39;20067;-62
2021/05/09 04:07:51;;;;;;;2.10;1.90;;;16.50;57.40;;;;;;1491838;39;20028;-62
2021/05/09 04:09:12;;;;;;;2.60;2.30;;;16.40;57.50;;;;;;1490967;39;20027;-62
2021/05/09 04:10:33;;;;;;;2.22;2.00;;;16.50;57.50;;;;;;1491091;39;20039;-62
2021/05/09 04:11:54;;;;;;;2.30;2.10;;;16.50;57.50;;;;;;1490988;39;20077;-62
2021/05/09 04:13:15;;;;;;;3.10;2.00;;;16.40;57.50;;;;;;1491581;39;20040;-62
2021/05/09 04:14:36;;;;;;;2.13;1.92;;;16.50;57.60;;;;;;1491527;39;20031;-62
2021/05/09 04:15:57;;;;;;;1.73;1.63;;;16.40;57.50;;;;;;1491715;39;20027;-62
2021/05/09 04:17:18;;;;;;;2.03;1.85;;;16.40;57.50;;;;;;1489811;39;20045;-62
2021/05/09 04:18:38;;;;;;;1.80;1.70;;;16.50;57.60;;;;;;1489663;39;20039;-62
2021/05/09 04:19:59;;;;;;;2.42;1.98;;;16.40;57.60;;;;;;1491267;39;20125;-63
2021/05/09 04:21:20;;;;;;;2.58;1.95;;;16.40;57.60;;;;;;1490992;39;20024;-63
2021/05/09 04:22:41;;;;;;;2.00;1.52;;;16.40;57.60;;;;;;1490740;39;20032;-62
2021/05/09 04:24:03;;;;;;;2.58;1.85;;;16.40;57.70;;;;;;1490367;39;20398;-62
2021/05/09 04:25:24;;;;;;;2.67;2.08;;;16.40;57.80;;;;;;1490756;39;20059;-62
2021/05/09 04:26:45;;;;;;;3.42;2.00;;;16.50;57.80;;;;;;1490282;39;20031;-62
2021/05/09 04:28:06;;;;;;;2.35;1.85;;;16.40;57.70;;;;;;1491182;39;20039;-62
2021/05/09 04:29:27;;;;;;;3.28;2.08;;;16.40;57.80;;;;;;1491250;39;20366;-62
2021/05/09 04:30:48;;;;;;;2.00;1.77;;;16.40;57.70;;;;;;1486567;40;20016;-63
2021/05/09 04:32:09;;;;;;;2.35;2.10;;;16.40;57.80;;;;;;1490169;39;20023;-61
2021/05/09 04:33:30;;;;;;;2.08;1.98;;;16.40;57.70;;;;;;1490951;39;20039;-62
2021/05/09 04:34:51;;;;;;;2.30;2.10;;;16.40;57.70;;;;;;1489343;39;20354;-62
2021/05/09 04:36:12;;;;;;;4.00;2.10;;;16.40;57.80;;;;;;1491156;39;20141;-63
2021/05/09 04:37:33;;;;;;;3.22;2.10;;;16.40;57.80;;;;;;1490798;39;20389;-63
2021/05/09 04:38:54;;;;;;;2.20;1.98;;;16.40;57.80;;;;;;1491427;39;20035;-63
2021/05/09 04:40:15;;;;;;;2.30;2.05;;;16.40;57.80;;;;;;1491911;39;20032;-63
2021/05/09 04:41:35;;;;;;;3.20;1.90;;;16.40;57.80;;;;;;1491586;39;20027;-63
2021/05/09 04:43:08;;;;;;;2.90;1.83;;;16.40;57.80;;;;;;1491470;39;20035;-62
2021/05/09 04:44:29;;;;;;;2.17;2.00;;;16.40;57.90;;;;;;1489995;39;20050;-64
2021/05/09 04:45:53;;;;;;;2.00;1.80;;;16.40;57.70;;;;;;1490104;39;20032;-62
2021/05/09 04:47:14;;;;;;;2.20;2.00;;;16.40;57.80;;;;;;1490662;39;20330;-63
2021/05/09 04:48:34;;;;;;;2.40;2.00;;;16.40;57.80;;;;;;1490887;39;20024;-63
2021/05/09 04:49:55;;;;;;;2.42;1.80;;;16.40;57.90;;;;;;1491367;39;20083;-62
2021/05/09 04:51:16;;;;;;;2.75;1.70;;;16.40;57.90;;;;;;1491361;39;20427;-62
2021/05/09 04:52:38;;;;;;;2.00;1.85;;;16.40;57.90;;;;;;1490935;39;20276;-62
2021/05/09 04:53:59;;;;;;;4.43;2.00;;;16.40;57.90;;;;;;1491562;39;20069;-63
2021/05/09 04:55:20;;;;;;;2.72;1.80;;;16.50;58.00;;;;;;1489306;39;20327;-63
2021/05/09 04:56:41;;;;;;;2.55;1.95;;;16.40;58.00;;;;;;1491165;39;20032;-62
2021/05/09 04:58:02;;;;;;;2.60;1.95;;;16.40;58.10;;;;;;1491539;39;20073;-63
2021/05/09 04:59:23;;;;;;;2.42;1.90;;;16.40;58.10;;;;;;1486843;40;20084;-62
2021/05/09 05:00:44;;;;;;;2.38;1.75;;;16.40;58.10;;;;;;1489749;39;20091;-62
2021/05/09 05:02:05;;;;;;;1.70;1.60;;;16.40;58.20;;;;;;1489338;39;20025;-63
2021/05/09 05:03:27;;;;;;;1.90;1.80;;;16.50;58.30;;;;;;1488488;39;20116;-62
2021/05/09 05:04:47;;;;;;;4.20;2.13;;;16.50;58.30;;;;;;1491384;39;20020;-63
2021/05/09 05:06:08;;;;;;;3.78;2.05;;;16.50;58.30;;;;;;1491971;39;20065;-62
2021/05/09 05:07:29;;;;;;;2.58;2.35;;;16.50;58.30;;;;;;1490421;39;20088;-62
2021/05/09 05:08:50;;;;;;;2.00;1.90;;;16.50;58.30;;;;;;1490055;39;20027;-62
2021/05/09 05:10:11;;;;;;;2.28;2.10;;;16.50;58.40;;;;;;1491158;39;20046;-62
2021/05/09 05:11:32;;;;;;;3.63;2.10;;;16.50;58.40;;;;;;1491260;39;20036;-62
2021/05/09 05:12:53;;;;;;;3.30;2.13;;;16.50;58.40;;;;;;1491294;39;20399;-62
2021/05/09 05:14:14;;;;;;;1.95;1.83;;;16.50;58.40;;;;;;1491134;39;20044;-62
2021/05/09 05:15:34;;;;;;;3.75;2.20;;;16.50;58.40;;;;;;1490896;39;20036;-62
2021/05/09 05:16:55;;;;;;;2.47;2.00;;;16.50;58.40;;;;;;1489581;39;20028;-62
2021/05/09 05:18:17;;;;;;;2.10;1.90;;;16.50;58.40;;;;;;1492122;39;20023;-62
2021/05/09 05:19:38;;;;;;;2.28;2.00;;;16.50;58.40;;;;;;1490696;39;20019;-62
2021/05/09 05:21:05;;;;;;;2.60;2.00;;;16.50;58.40;;;;;;1490203;39;20040;-62
2021/05/09 05:22:26;;;;;;;1.98;1.77;;;16.50;58.40;;;;;;1491908;39;20039;-62
2021/05/09 05:23:48;;;;;;;2.88;1.98;;;16.50;58.40;;;;;;1490839;39;20022;-62
2021/05/09 05:25:09;;;;;;;4.22;1.98;;;16.50;58.40;;;;;;1492325;39;20414;-62
2021/05/09 05:26:30;;;;;;;3.10;2.30;;;16.50;58.40;;;;;;1491907;39;20040;-62
2021/05/09 05:27:51;;;;;;;2.70;2.10;;;16.50;58.50;;;;;;1492204;39;20364;-62
2021/05/09 05:29:12;;;;;;;2.25;2.05;;;16.60;58.50;;;;;;1490986;39;20028;-63
2021/05/09 05:30:34;;;;;;;4.82;2.10;;;16.60;58.50;;;;;;1491259;39;20499;-63
2021/05/09 05:31:55;;;;;;;2.35;2.15;;;16.60;58.50;;;;;;1489807;39;20028;-62
2021/05/09 05:33:31;;;;;;;2.00;1.80;;;16.60;58.50;;;;;;1491963;39;20043;-62
2021/05/09 05:34:51;;;;;;;2.85;1.90;;;16.50;58.80;;;;;;1492153;39;20358;-61
2021/05/09 05:36:12;;;;;;;2.53;2.08;;;16.50;59.00;;;;;;1492114;39;20016;-62
2021/05/09 05:37:33;;;;;;;2.65;2.45;;;16.60;58.60;;;;;;1491080;39;20114;-63
2021/05/09 05:38:54;;;;;;;3.55;2.13;;;16.60;58.60;;;;;;1490768;39;20031;-62
2021/05/09 05:40:15;;;;;;;4.97;2.40;;;16.60;58.70;;;;;;1491770;39;20032;-62
2021/05/09 05:41:36;;;;;;;4.40;2.22;;;16.60;58.70;;;;;;1490865;39;20058;-62
2021/05/09 05:42:57;;;;;;;3.72;1.95;;;16.60;58.70;;;;;;1492087;39;20230;-62
2021/05/09 05:44:18;;;;;;;2.42;2.00;;;16.60;58.80;;;;;;1490524;39;20087;-62
2021/05/09 05:45:38;;;;;;;2.40;2.20;;;16.60;58.80;;;;;;1491332;39;20042;-62
2021/05/09 05:46:59;;;;;;;3.45;2.25;;;16.70;58.80;;;;;;1491837;39;20032;-63
2021/05/09 05:48:21;;;;;;;2.85;2.47;;;16.70;58.80;;;;;;1491254;39;20075;-62
2021/05/09 05:49:42;;;;;;;2.53;2.20;;;16.70;58.80;;;;;;1487624;40;20048;-62
2021/05/09 05:51:03;;;;;;;2.50;2.30;;;16.70;58.80;;;;;;1490286;39;20490;-62
2021/05/09 05:52:23;;;;;;;4.38;2.28;;;16.70;58.90;;;;;;1490272;39;20062;-62
2021/05/09 05:53:44;;;;;;;3.20;2.30;;;16.80;58.80;;;;;;1490722;39;20348;-62
2021/05/09 05:55:06;;;;;;;2.45;2.20;;;16.80;58.80;;;;;;1489926;39;20028;-62
2021/05/09 05:56:27;;;;;;;2.88;2.20;;;16.80;58.80;;;;;;1491678;39;20032;-62
2021/05/09 05:57:48;;;;;;;3.28;2.13;;;16.80;58.80;;;;;;1490992;39;20024;-62
2021/05/09 05:59:09;;;;;;;2.92;2.20;;;16.80;58.80;;;;;;1491704;39;20040;-61
2021/05/09 06:00:30;;;;;;;3.10;2.17;;;16.80;58.80;;;;;;1492376;39;20071;-62
2021/05/09 06:01:51;;;;;;;2.00;1.80;;;16.90;58.80;;;;;;1491757;39;20109;-62
2021/05/09 06:03:12;;;;;;;2.85;2.00;;;16.90;58.80;;;;;;1490150;39;20043;-62
2021/05/09 06:04:33;;;;;;;2.45;2.15;;;16.90;58.70;;;;;;1491738;39;20060;-62
2021/05/09 06:05:54;;;;;;;3.65;2.05;;;16.90;58.70;;;;;;1492131;39;20032;-62
2021/05/09 06:07:15;;;;;;;3.03;2.00;;;17.00;58.70;;;;;;1492647;39;20341;-61
2021/05/09 06:08:37;;;;;;;2.97;1.90;;;17.00;58.70;;;;;;1492299;39;20113;-62
2021/05/09 06:09:58;;;;;;;3.00;1.85;;;17.00;58.70;;;;;;1491859;39;20384;-62
2021/05/09 06:11:19;;;;;;;2.83;1.75;;;17.10;58.80;;;;;;1491610;39;20062;-61
2021/05/09 06:12:40;;;;;;;1.80;1.70;;;17.10;58.80;;;;;;1491720;39;20039;-61
2021/05/09 06:14:01;;;;;;;3.10;1.85;;;17.20;58.80;;;;;;1492267;39;20124;-61
2021/05/09 06:15:22;;;;;;;3.55;2.10;;;17.20;58.80;;;;;;1491975;39;20120;-61
2021/05/09 06:16:43;;;;;;;2.70;1.88;;;17.20;58.80;;;;;;1490816;39;20387;-61
2021/05/09 06:18:05;;;;;;;3.50;2.00;;;17.30;58.90;;;;;;1491701;39;20039;-61
2021/05/09 06:19:26;;;;;;;1.90;1.67;;;17.30;58.80;;;;;;1492640;39;20101;-61
2021/05/09 06:20:47;;;;;;;3.25;1.83;;;17.30;58.80;;;;;;1492361;39;20030;-61
2021/05/09 06:22:08;;;;;;;2.05;1.77;;;17.40;58.70;;;;;;1491730;39;20031;-62
2021/05/09 06:23:29;;;;;;;2.92;1.85;;;17.40;58.60;;;;;;1491697;39;20052;-62
2021/05/09 06:24:51;;;;;;;2.08;1.73;;;17.50;58.60;;;;;;1491347;39;20047;-62
2021/05/09 06:26:12;;;;;;;2.42;1.70;;;17.50;58.60;;;;;;1491975;39;20064;-61
2021/05/09 06:27:33;;;;;;;1.85;1.60;;;17.60;58.60;;;;;;1491421;39;20016;-61
2021/05/09 06:28:54;;;;;;;2.15;1.80;;;17.60;58.50;;;;;;1491504;39;20043;-61
2021/05/09 06:30:15;;;;;;;2.70;2.22;;;17.60;59.00;;;;;;1491929;39;20031;-62
2021/05/09 06:31:36;;;;;;;1.85;1.75;;;17.60;58.50;;;;;;1492052;39;20023;-61
2021/05/09 06:32:57;;;;;;;2.40;2.20;;;17.70;58.60;;;;;;1491424;39;20043;-61
2021/05/09 06:34:18;;;;;;;2.30;2.05;;;17.80;58.60;;;;;;1492257;39;20361;-62
2021/05/09 06:35:41;;;;;;;2.45;1.98;;;17.80;58.50;;;;;;1487171;40;20044;-61
2021/05/09 06:37:01;;;;;;;3.10;1.90;;;17.90;58.50;;;;;;1489642;39;20031;-61
2021/05/09 06:38:22;;;;;;;3.63;2.20;;;17.90;58.50;;;;;;1486511;40;20036;-62
2021/05/09 06:39:43;;;;;;;3.72;2.08;;;17.90;58.50;;;;;;1489710;39;20077;-62
2021/05/09 06:41:04;;;;;;;2.28;2.08;;;18.00;58.60;;;;;;1492094;39;20073;-61
2021/05/09 06:42:25;;;;;;;3.08;2.38;;;18.00;58.60;;;;;;1490007;39;20296;-61
2021/05/09 06:43:47;;;;;;;3.13;2.47;;;18.10;58.60;;;;;;1491248;39;20105;-61
2021/05/09 06:45:13;;;;;;;2.38;2.17;;;18.10;58.50;;;;;;1491040;39;20035;-62
2021/05/09 06:46:34;;;;;;;3.30;2.75;;;18.20;58.50;;;;;;1491224;39;20357;-62
2021/05/09 06:47:56;;;;;;;3.75;2.97;;;18.20;58.40;;;;;;1490824;39;20509;-61
2021/05/09 06:49:17;;;;;;;4.35;2.78;;;18.20;58.30;;;;;;1492029;39;20038;-62
2021/05/09 06:50:38;;;;;;;2.70;2.22;;;18.30;58.30;;;;;;1492262;39;20527;-60
2021/05/09 06:51:59;;;;;;;3.08;2.78;;;18.30;58.20;;;;;;1490221;39;20063;-61
2021/05/09 06:53:20;;;;;;;3.22;2.92;;;18.30;58.20;;;;;;1491229;39;20036;-60
2021/05/09 06:54:41;;;;;;;4.15;2.42;;;18.40;58.20;;;;;;1491020;39;20059;-60
2021/05/09 06:56:02;;;;;;;2.80;2.50;;;18.40;58.10;;;;;;1490206;39;20563;-61
2021/05/09 06:57:23;;;;;;;3.40;2.70;;;18.40;58.00;;;;;;1490188;39;20084;-60
2021/05/09 06:58:44;;;;;;;3.55;2.60;;;18.50;57.90;;;;;;1491005;39;20043;-60
2021/05/09 07:00:07;;;;;;;2.60;2.40;;;18.50;57.80;;;;;;1490869;39;20030;-60
2021/05/09 07:01:28;;;;;;;3.03;2.58;;;18.60;57.70;;;;;;1491463;39;20108;-60
2021/05/09 07:02:49;;;;;;;3.30;2.97;;;18.60;57.70;;;;;;1491415;39;20055;-60